sensor_id;sensor_type;location;lat;lon;timestamp;P1;durP1;ratioP1;P2;durP2;ratioP2
9374;SDS011;4727;51.202;6.344;2023-02-28T00:00:11;7.40;;;6.40;;
9374;SDS011;4727;51.202;6.344;2023-02-28T00:02:39;7.97;;;7.17;;
9374;SDS011;4727;51.202;6.344;2023-02-28T00:05:05;7.27;;;6.57;;
9374;SDS011;4727;51.202;6.344;2023-02-28T00:07:32;11.07;;;6.80;;
9374;SDS011;4727;51.202;6.344;2023-02-28T00:09:58;8.17;;;7.13;;
9374;SDS011;4727;51.202;6.344;2023-02-28T00:12:24;9.37;;;7.77;;
9374;SDS011;4727;51.202;6.344;2023-02-28T00:14:50;7.77;;;6.90;;
9374;SDS011;4727;51.202;6.344;2023-02-28T00:17:16;9.40;;;7.00;;
9374;SDS011;4727;51.202;6.344;2023-02-28T00:19:46;8.40;;;7.13;;
9374;SDS011;4727;51.202;6.344;2023-02-28T00:22:12;10.00;;;6.73;;
9374;SDS011;4727;51.202;6.344;2023-02-28T00:24:38;7.63;;;6.93;;
9374;SDS011;4727;51.202;6.344;2023-02-28T00:27:04;8.90;;;6.97;;
9374;SDS011;4727;51.202;6.344;2023-02-28T00:29:30;8.90;;;6.90;;
9374;SDS011;4727;51.202;6.344;2023-02-28T00:31:56;10.40;;;7.27;;
9374;SDS011;4727;51.202;6.344;2023-02-28T00:34:22;9.23;;;7.67;;
9374;SDS011;4727;51.202;6.344;2023-02-28T00:36:48;8.50;;;7.50;;
9374;SDS011;4727;51.202;6.344;2023-02-28T00:39:14;9.03;;;7.07;;
9374;SDS011;4727;51.202;6.344;2023-02-28T00:41:40;10.30;;;7.90;;
9374;SDS011;4727;51.202;6.344;2023-02-28T00:44:06;13.70;;;8.43;;
9374;SDS011;4727;51.202;6.344;2023-02-28T00:46:32;18.23;;;11.13;;
9374;SDS011;4727;51.202;6.344;2023-02-28T00:48:58;20.13;;;13.27;;
9374;SDS011;4727;51.202;6.344;2023-02-28T00:51:24;17.43;;;10.23;;
9374;SDS011;4727;51.202;6.344;2023-02-28T00:53:49;26.17;;;14.23;;
9374;SDS011;4727;51.202;6.344;2023-02-28T00:56:16;17.07;;;10.70;;
9374;SDS011;4727;51.202;6.344;2023-02-28T00:58:42;16.83;;;10.23;;
9374;SDS011;4727;51.202;6.344;2023-02-28T01:01:08;15.53;;;11.27;;
9374;SDS011;4727;51.202;6.344;2023-02-28T01:03:34;19.60;;;13.90;;
9374;SDS011;4727;51.202;6.344;2023-02-28T01:06:00;23.37;;;14.77;;
9374;SDS011;4727;51.202;6.344;2023-02-28T01:08:26;32.40;;;19.23;;
9374;SDS011;4727;51.202;6.344;2023-02-28T01:10:53;39.57;;;23.53;;
9374;SDS011;4727;51.202;6.344;2023-02-28T01:13:19;42.73;;;25.10;;
9374;SDS011;4727;51.202;6.344;2023-02-28T01:15:46;43.43;;;26.30;;
9374;SDS011;4727;51.202;6.344;2023-02-28T01:18:15;41.60;;;24.53;;
9374;SDS011;4727;51.202;6.344;2023-02-28T01:20:41;39.20;;;23.67;;
9374;SDS011;4727;51.202;6.344;2023-02-28T01:23:07;39.10;;;23.83;;
9374;SDS011;4727;51.202;6.344;2023-02-28T01:25:36;34.77;;;21.63;;
9374;SDS011;4727;51.202;6.344;2023-02-28T01:28:02;23.37;;;15.13;;
9374;SDS011;4727;51.202;6.344;2023-02-28T01:30:28;12.37;;;9.87;;
9374;SDS011;4727;51.202;6.344;2023-02-28T01:32:54;10.87;;;9.47;;
9374;SDS011;4727;51.202;6.344;2023-02-28T01:35:20;12.70;;;9.77;;
9374;SDS011;4727;51.202;6.344;2023-02-28T01:37:46;12.83;;;9.90;;
9374;SDS011;4727;51.202;6.344;2023-02-28T01:40:12;11.50;;;9.60;;
9374;SDS011;4727;51.202;6.344;2023-02-28T01:42:38;9.60;;;8.57;;
9374;SDS011;4727;51.202;6.344;2023-02-28T01:47:50;8.93;;;8.00;;
9374;SDS011;4727;51.202;6.344;2023-02-28T01:50:21;10.13;;;8.20;;
9374;SDS011;4727;51.202;6.344;2023-02-28T01:52:48;10.57;;;8.53;;
9374;SDS011;4727;51.202;6.344;2023-02-28T01:55:16;9.37;;;8.23;;
9374;SDS011;4727;51.202;6.344;2023-02-28T01:57:48;9.47;;;7.93;;
9374;SDS011;4727;51.202;6.344;2023-02-28T02:00:16;10.37;;;7.87;;
9374;SDS011;4727;51.202;6.344;2023-02-28T02:02:43;10.10;;;7.83;;
9374;SDS011;4727;51.202;6.344;2023-02-28T02:05:11;9.03;;;8.00;;
9374;SDS011;4727;51.202;6.344;2023-02-28T02:07:38;10.37;;;7.63;;
9374;SDS011;4727;51.202;6.344;2023-02-28T02:15:09;10.73;;;8.03;;
9374;SDS011;4727;51.202;6.344;2023-02-28T02:17:39;10.53;;;8.17;;
9374;SDS011;4727;51.202;6.344;2023-02-28T02:22:51;9.50;;;8.57;;
9374;SDS011;4727;51.202;6.344;2023-02-28T02:25:25;13.23;;;8.60;;
9374;SDS011;4727;51.202;6.344;2023-02-28T02:36:04;10.07;;;8.20;;
9374;SDS011;4727;51.202;6.344;2023-02-28T02:43:32;10.77;;;8.27;;
9374;SDS011;4727;51.202;6.344;2023-02-28T02:46:09;9.33;;;8.37;;
9374;SDS011;4727;51.202;6.344;2023-02-28T02:48:36;11.20;;;8.47;;
9374;SDS011;4727;51.202;6.344;2023-02-28T02:51:04;9.30;;;8.37;;
9374;SDS011;4727;51.202;6.344;2023-02-28T02:53:37;9.47;;;8.20;;
9374;SDS011;4727;51.202;6.344;2023-02-28T02:56:03;9.43;;;7.97;;
9374;SDS011;4727;51.202;6.344;2023-02-28T02:58:32;10.00;;;8.70;;
9374;SDS011;4727;51.202;6.344;2023-02-28T03:01:00;8.93;;;8.03;;
9374;SDS011;4727;51.202;6.344;2023-02-28T03:03:27;9.17;;;8.20;;
9374;SDS011;4727;51.202;6.344;2023-02-28T03:05:55;12.13;;;8.80;;
9374;SDS011;4727;51.202;6.344;2023-02-28T03:08:21;10.53;;;8.33;;
9374;SDS011;4727;51.202;6.344;2023-02-28T03:10:51;10.07;;;8.23;;
9374;SDS011;4727;51.202;6.344;2023-02-28T03:13:22;8.77;;;7.83;;
9374;SDS011;4727;51.202;6.344;2023-02-28T03:15:57;8.40;;;7.53;;
9374;SDS011;4727;51.202;6.344;2023-02-28T03:23:38;10.50;;;7.63;;
9374;SDS011;4727;51.202;6.344;2023-02-28T03:26:13;8.47;;;7.57;;
9374;SDS011;4727;51.202;6.344;2023-02-28T03:28:42;9.17;;;7.50;;
9374;SDS011;4727;51.202;6.344;2023-02-28T03:33:50;8.97;;;8.07;;
9374;SDS011;4727;51.202;6.344;2023-02-28T03:36:20;8.40;;;7.60;;
9374;SDS011;4727;51.202;6.344;2023-02-28T03:38:49;9.60;;;7.60;;
9374;SDS011;4727;51.202;6.344;2023-02-28T03:43:48;8.77;;;7.80;;
9374;SDS011;4727;51.202;6.344;2023-02-28T03:46:18;11.10;;;8.43;;
9374;SDS011;4727;51.202;6.344;2023-02-28T03:48:51;11.23;;;8.30;;
9374;SDS011;4727;51.202;6.344;2023-02-28T03:51:18;9.63;;;8.07;;
9374;SDS011;4727;51.202;6.344;2023-02-28T03:53:47;9.33;;;7.93;;
9374;SDS011;4727;51.202;6.344;2023-02-28T03:56:20;12.63;;;9.17;;
9374;SDS011;4727;51.202;6.344;2023-02-28T03:58:54;10.40;;;8.60;;
9374;SDS011;4727;51.202;6.344;2023-02-28T04:03:47;10.23;;;8.07;;
9374;SDS011;4727;51.202;6.344;2023-02-28T04:06:15;9.27;;;8.30;;
9374;SDS011;4727;51.202;6.344;2023-02-28T04:08:41;9.83;;;8.83;;
9374;SDS011;4727;51.202;6.344;2023-02-28T04:11:11;10.80;;;7.90;;
9374;SDS011;4727;51.202;6.344;2023-02-28T04:13:38;12.07;;;8.67;;
9374;SDS011;4727;51.202;6.344;2023-02-28T04:16:07;11.17;;;7.83;;
9374;SDS011;4727;51.202;6.344;2023-02-28T04:18:40;9.27;;;8.37;;
9374;SDS011;4727;51.202;6.344;2023-02-28T04:21:07;8.97;;;8.07;;
9374;SDS011;4727;51.202;6.344;2023-02-28T04:23:33;10.13;;;7.60;;
9374;SDS011;4727;51.202;6.344;2023-02-28T04:25:59;8.00;;;6.73;;
9374;SDS011;4727;51.202;6.344;2023-02-28T04:28:25;8.13;;;6.93;;
9374;SDS011;4727;51.202;6.344;2023-02-28T04:31:01;9.40;;;7.90;;
9374;SDS011;4727;51.202;6.344;2023-02-28T04:33:28;8.73;;;7.80;;
9374;SDS011;4727;51.202;6.344;2023-02-28T04:36:00;8.00;;;7.07;;
9374;SDS011;4727;51.202;6.344;2023-02-28T04:38:27;11.70;;;6.93;;
9374;SDS011;4727;51.202;6.344;2023-02-28T04:40:53;9.83;;;7.60;;
9374;SDS011;4727;51.202;6.344;2023-02-28T04:43:22;7.70;;;7.00;;
9374;SDS011;4727;51.202;6.344;2023-02-28T04:45:48;6.80;;;6.20;;
9374;SDS011;4727;51.202;6.344;2023-02-28T04:48:14;8.37;;;6.90;;
9374;SDS011;4727;51.202;6.344;2023-02-28T04:50:40;8.93;;;6.17;;
9374;SDS011;4727;51.202;6.344;2023-02-28T04:53:06;7.80;;;6.03;;
9374;SDS011;4727;51.202;6.344;2023-02-28T04:55:31;6.80;;;6.03;;
9374;SDS011;4727;51.202;6.344;2023-02-28T04:57:57;9.17;;;6.63;;
9374;SDS011;4727;51.202;6.344;2023-02-28T05:00:23;9.27;;;6.37;;
9374;SDS011;4727;51.202;6.344;2023-02-28T05:02:50;8.43;;;6.10;;
9374;SDS011;4727;51.202;6.344;2023-02-28T05:05:16;8.40;;;5.93;;
9374;SDS011;4727;51.202;6.344;2023-02-28T05:07:43;6.60;;;5.90;;
9374;SDS011;4727;51.202;6.344;2023-02-28T05:10:10;7.90;;;7.10;;
9374;SDS011;4727;51.202;6.344;2023-02-28T05:12:36;8.70;;;6.03;;
9374;SDS011;4727;51.202;6.344;2023-02-28T05:15:03;8.30;;;6.03;;
9374;SDS011;4727;51.202;6.344;2023-02-28T05:17:30;9.20;;;6.47;;
9374;SDS011;4727;51.202;6.344;2023-02-28T05:19:56;7.30;;;6.23;;
9374;SDS011;4727;51.202;6.344;2023-02-28T05:22:22;10.10;;;6.83;;
9374;SDS011;4727;51.202;6.344;2023-02-28T05:24:48;8.93;;;6.60;;
9374;SDS011;4727;51.202;6.344;2023-02-28T05:27:14;7.03;;;6.33;;
9374;SDS011;4727;51.202;6.344;2023-02-28T05:29:40;8.20;;;6.30;;
9374;SDS011;4727;51.202;6.344;2023-02-28T05:32:10;7.63;;;6.13;;
9374;SDS011;4727;51.202;6.344;2023-02-28T05:34:37;7.27;;;5.97;;
9374;SDS011;4727;51.202;6.344;2023-02-28T05:53:59;6.50;;;5.93;;
9374;SDS011;4727;51.202;6.344;2023-02-28T05:56:25;7.43;;;6.57;;
9374;SDS011;4727;51.202;6.344;2023-02-28T05:58:51;6.60;;;5.90;;
9374;SDS011;4727;51.202;6.344;2023-02-28T06:04:03;9.00;;;6.20;;
9374;SDS011;4727;51.202;6.344;2023-02-28T06:21:11;7.03;;;5.63;;
9374;SDS011;4727;51.202;6.344;2023-02-28T06:23:37;6.17;;;5.50;;
9374;SDS011;4727;51.202;6.344;2023-02-28T06:26:04;6.13;;;5.50;;
9374;SDS011;4727;51.202;6.344;2023-02-28T06:28:30;7.10;;;5.83;;
9374;SDS011;4727;51.202;6.344;2023-02-28T06:30:56;6.80;;;6.17;;
9374;SDS011;4727;51.202;6.344;2023-02-28T07:14:13;6.90;;;5.80;;
9374;SDS011;4727;51.202;6.344;2023-02-28T07:17:00;7.10;;;5.93;;
9374;SDS011;4727;51.202;6.344;2023-02-28T07:19:33;5.83;;;5.33;;
9374;SDS011;4727;51.202;6.344;2023-02-28T07:22:05;6.73;;;5.30;;
9374;SDS011;4727;51.202;6.344;2023-02-28T07:24:40;8.27;;;5.37;;
9374;SDS011;4727;51.202;6.344;2023-02-28T07:27:06;8.47;;;6.93;;
9374;SDS011;4727;51.202;6.344;2023-02-28T07:29:38;9.23;;;5.57;;
9374;SDS011;4727;51.202;6.344;2023-02-28T07:32:07;7.23;;;5.83;;
9374;SDS011;4727;51.202;6.344;2023-02-28T07:34:33;6.80;;;5.47;;
9374;SDS011;4727;51.202;6.344;2023-02-28T07:37:05;7.97;;;6.07;;
9374;SDS011;4727;51.202;6.344;2023-02-28T07:39:41;5.30;;;4.80;;
9374;SDS011;4727;51.202;6.344;2023-02-28T07:42:07;6.20;;;5.37;;
9374;SDS011;4727;51.202;6.344;2023-02-28T07:44:41;5.47;;;4.90;;
9374;SDS011;4727;51.202;6.344;2023-02-28T07:47:24;5.67;;;4.90;;
9374;SDS011;4727;51.202;6.344;2023-02-28T07:50:11;7.10;;;5.40;;
9374;SDS011;4727;51.202;6.344;2023-02-28T07:53:00;4.90;;;4.40;;
9374;SDS011;4727;51.202;6.344;2023-02-28T07:58:07;5.73;;;5.20;;
9374;SDS011;4727;51.202;6.344;2023-02-28T08:00:33;5.10;;;4.60;;
9374;SDS011;4727;51.202;6.344;2023-02-28T08:03:05;5.00;;;4.60;;
9374;SDS011;4727;51.202;6.344;2023-02-28T08:05:59;5.60;;;5.03;;
9374;SDS011;4727;51.202;6.344;2023-02-28T08:08:27;7.60;;;5.30;;
9374;SDS011;4727;51.202;6.344;2023-02-28T08:10:59;5.33;;;4.77;;
9374;SDS011;4727;51.202;6.344;2023-02-28T08:13:31;4.70;;;4.30;;
9374;SDS011;4727;51.202;6.344;2023-02-28T08:16:01;4.80;;;4.40;;
9374;SDS011;4727;51.202;6.344;2023-02-28T08:18:27;4.70;;;4.30;;
9374;SDS011;4727;51.202;6.344;2023-02-28T08:21:06;4.73;;;4.20;;
9374;SDS011;4727;51.202;6.344;2023-02-28T08:23:37;4.53;;;4.10;;
9374;SDS011;4727;51.202;6.344;2023-02-28T08:26:06;4.57;;;4.13;;
9374;SDS011;4727;51.202;6.344;2023-02-28T08:28:39;5.37;;;4.90;;
9374;SDS011;4727;51.202;6.344;2023-02-28T08:31:13;6.17;;;4.93;;
9374;SDS011;4727;51.202;6.344;2023-02-28T08:33:45;4.77;;;4.30;;
9374;SDS011;4727;51.202;6.344;2023-02-28T08:36:13;4.30;;;3.97;;
9374;SDS011;4727;51.202;6.344;2023-02-28T08:38:39;6.00;;;5.40;;
9374;SDS011;4727;51.202;6.344;2023-02-28T08:41:13;4.03;;;3.73;;
9374;SDS011;4727;51.202;6.344;2023-02-28T08:43:41;7.23;;;4.10;;
9374;SDS011;4727;51.202;6.344;2023-02-28T08:46:15;3.97;;;3.70;;
9374;SDS011;4727;51.202;6.344;2023-02-28T08:48:43;5.20;;;4.03;;
9374;SDS011;4727;51.202;6.344;2023-02-28T08:51:19;4.07;;;3.77;;
9374;SDS011;4727;51.202;6.344;2023-02-28T08:53:58;4.40;;;4.00;;
9374;SDS011;4727;51.202;6.344;2023-02-28T08:56:31;4.30;;;3.93;;
9374;SDS011;4727;51.202;6.344;2023-02-28T08:58:57;3.97;;;3.63;;
9374;SDS011;4727;51.202;6.344;2023-02-28T09:01:41;3.73;;;3.50;;
9374;SDS011;4727;51.202;6.344;2023-02-28T09:04:10;3.40;;;3.13;;
9374;SDS011;4727;51.202;6.344;2023-02-28T09:06:36;3.30;;;3.00;;
9374;SDS011;4727;51.202;6.344;2023-02-28T09:09:05;3.70;;;3.50;;
9374;SDS011;4727;51.202;6.344;2023-02-28T09:11:37;3.73;;;3.43;;
9374;SDS011;4727;51.202;6.344;2023-02-28T09:14:03;3.50;;;3.20;;
9374;SDS011;4727;51.202;6.344;2023-02-28T09:16:42;3.30;;;3.10;;
9374;SDS011;4727;51.202;6.344;2023-02-28T09:19:11;3.10;;;2.80;;
9374;SDS011;4727;51.202;6.344;2023-02-28T09:21:37;2.77;;;2.67;;
9374;SDS011;4727;51.202;6.344;2023-02-28T09:24:04;3.33;;;3.00;;
9374;SDS011;4727;51.202;6.344;2023-02-28T09:26:32;3.20;;;3.00;;
9374;SDS011;4727;51.202;6.344;2023-02-28T09:28:59;3.50;;;3.20;;
9374;SDS011;4727;51.202;6.344;2023-02-28T09:31:40;2.80;;;2.63;;
9374;SDS011;4727;51.202;6.344;2023-02-28T09:34:12;2.67;;;2.47;;
9374;SDS011;4727;51.202;6.344;2023-02-28T09:36:40;3.43;;;3.13;;
9374;SDS011;4727;51.202;6.344;2023-02-28T09:39:11;3.60;;;3.30;;
9374;SDS011;4727;51.202;6.344;2023-02-28T09:41:41;3.03;;;2.83;;
9374;SDS011;4727;51.202;6.344;2023-02-28T09:46:46;2.83;;;2.10;;
9374;SDS011;4727;51.202;6.344;2023-02-28T09:49:38;2.37;;;2.17;;
9374;SDS011;4727;51.202;6.344;2023-02-28T09:52:14;2.50;;;2.40;;
9374;SDS011;4727;51.202;6.344;2023-02-28T09:54:45;2.30;;;2.10;;
9374;SDS011;4727;51.202;6.344;2023-02-28T09:57:21;2.40;;;2.30;;
9374;SDS011;4727;51.202;6.344;2023-02-28T10:02:38;2.70;;;2.50;;
9374;SDS011;4727;51.202;6.344;2023-02-28T10:05:14;2.73;;;2.60;;
9374;SDS011;4727;51.202;6.344;2023-02-28T10:12:44;3.87;;;2.87;;
9374;SDS011;4727;51.202;6.344;2023-02-28T10:15:15;2.50;;;2.40;;
9374;SDS011;4727;51.202;6.344;2023-02-28T10:17:43;2.97;;;2.73;;
9374;SDS011;4727;51.202;6.344;2023-02-28T10:20:11;3.13;;;2.87;;
9374;SDS011;4727;51.202;6.344;2023-02-28T10:22:58;4.33;;;3.93;;
9374;SDS011;4727;51.202;6.344;2023-02-28T10:25:26;3.80;;;3.50;;
9374;SDS011;4727;51.202;6.344;2023-02-28T10:28:10;2.63;;;2.53;;
9374;SDS011;4727;51.202;6.344;2023-02-28T10:30:50;3.20;;;3.00;;
9374;SDS011;4727;51.202;6.344;2023-02-28T10:33:33;3.67;;;3.00;;
9374;SDS011;4727;51.202;6.344;2023-02-28T10:36:00;2.87;;;2.67;;
9374;SDS011;4727;51.202;6.344;2023-02-28T10:38:33;3.83;;;2.83;;
9374;SDS011;4727;51.202;6.344;2023-02-28T10:41:15;2.80;;;2.60;;
9374;SDS011;4727;51.202;6.344;2023-02-28T10:43:42;2.77;;;2.67;;
9374;SDS011;4727;51.202;6.344;2023-02-28T10:51:08;2.50;;;2.40;;
9374;SDS011;4727;51.202;6.344;2023-02-28T10:56:15;5.80;;;2.70;;
9374;SDS011;4727;51.202;6.344;2023-02-28T11:01:18;3.00;;;2.80;;
9374;SDS011;4727;51.202;6.344;2023-02-28T11:03:44;3.10;;;2.80;;
9374;SDS011;4727;51.202;6.344;2023-02-28T11:06:28;3.43;;;3.13;;
9374;SDS011;4727;51.202;6.344;2023-02-28T11:09:04;3.33;;;3.03;;
9374;SDS011;4727;51.202;6.344;2023-02-28T11:11:42;4.47;;;3.00;;
9374;SDS011;4727;51.202;6.344;2023-02-28T11:14:22;3.13;;;2.80;;
9374;SDS011;4727;51.202;6.344;2023-02-28T11:16:54;3.00;;;2.77;;
9374;SDS011;4727;51.202;6.344;2023-02-28T11:19:38;2.80;;;2.60;;
9374;SDS011;4727;51.202;6.344;2023-02-28T11:22:08;3.07;;;2.87;;
9374;SDS011;4727;51.202;6.344;2023-02-28T11:24:42;3.20;;;3.00;;
9374;SDS011;4727;51.202;6.344;2023-02-28T11:30:34;4.13;;;3.73;;
9374;SDS011;4727;51.202;6.344;2023-02-28T11:36:03;3.10;;;2.90;;
9374;SDS011;4727;51.202;6.344;2023-02-28T11:38:32;3.53;;;3.23;;
9374;SDS011;4727;51.202;6.344;2023-02-28T11:41:10;3.10;;;2.90;;
9374;SDS011;4727;51.202;6.344;2023-02-28T11:46:39;3.17;;;2.97;;
9374;SDS011;4727;51.202;6.344;2023-02-28T11:49:20;3.27;;;3.00;;
9374;SDS011;4727;51.202;6.344;2023-02-28T11:52:10;4.40;;;3.00;;
9374;SDS011;4727;51.202;6.344;2023-02-28T11:54:53;4.80;;;3.07;;
9374;SDS011;4727;51.202;6.344;2023-02-28T12:19:19;3.53;;;2.83;;
9374;SDS011;4727;51.202;6.344;2023-02-28T12:27:07;2.90;;;2.70;;
9374;SDS011;4727;51.202;6.344;2023-02-28T12:29:40;3.20;;;2.77;;
9374;SDS011;4727;51.202;6.344;2023-02-28T12:32:13;3.20;;;2.90;;
9374;SDS011;4727;51.202;6.344;2023-02-28T12:35:18;3.17;;;2.83;;
9374;SDS011;4727;51.202;6.344;2023-02-28T12:37:38;3.10;;;2.80;;
9374;SDS011;4727;51.202;6.344;2023-02-28T12:42:43;3.00;;;2.80;;
9374;SDS011;4727;51.202;6.344;2023-02-28T12:45:24;4.27;;;3.83;;
9374;SDS011;4727;51.202;6.344;2023-02-28T12:48:13;4.37;;;3.97;;
9374;SDS011;4727;51.202;6.344;2023-02-28T12:50:42;4.63;;;4.20;;
9374;SDS011;4727;51.202;6.344;2023-02-28T12:53:10;3.97;;;3.67;;
9374;SDS011;4727;51.202;6.344;2023-02-28T12:55:41;2.97;;;2.77;;
9374;SDS011;4727;51.202;6.344;2023-02-28T13:01:05;3.07;;;2.87;;
9374;SDS011;4727;51.202;6.344;2023-02-28T13:09:02;2.77;;;2.57;;
9374;SDS011;4727;51.202;6.344;2023-02-28T13:11:39;3.20;;;2.83;;
9374;SDS011;4727;51.202;6.344;2023-02-28T13:14:18;3.77;;;3.37;;
9374;SDS011;4727;51.202;6.344;2023-02-28T13:16:50;3.23;;;2.93;;
9374;SDS011;4727;51.202;6.344;2023-02-28T13:19:17;5.40;;;4.23;;
9374;SDS011;4727;51.202;6.344;2023-02-28T13:21:44;4.17;;;3.77;;
9374;SDS011;4727;51.202;6.344;2023-02-28T13:24:35;4.27;;;3.87;;
9374;SDS011;4727;51.202;6.344;2023-02-28T13:29:32;4.27;;;3.40;;
9374;SDS011;4727;51.202;6.344;2023-02-28T13:34:34;3.87;;;3.40;;
9374;SDS011;4727;51.202;6.344;2023-02-28T13:42:38;3.67;;;3.47;;
9374;SDS011;4727;51.202;6.344;2023-02-28T13:48:18;3.70;;;3.40;;
9374;SDS011;4727;51.202;6.344;2023-02-28T13:50:45;3.47;;;3.17;;
9374;SDS011;4727;51.202;6.344;2023-02-28T13:58:39;3.43;;;3.13;;
9374;SDS011;4727;51.202;6.344;2023-02-28T14:04:12;3.40;;;3.00;;
9374;SDS011;4727;51.202;6.344;2023-02-28T14:06:49;3.70;;;3.40;;
9374;SDS011;4727;51.202;6.344;2023-02-28T14:09:26;2.93;;;2.83;;
9374;SDS011;4727;51.202;6.344;2023-02-28T14:11:56;3.37;;;3.03;;
9374;SDS011;4727;51.202;6.344;2023-02-28T14:20:04;5.00;;;3.73;;
9374;SDS011;4727;51.202;6.344;2023-02-28T14:22:45;3.37;;;3.07;;
9374;SDS011;4727;51.202;6.344;2023-02-28T14:25:21;4.53;;;3.03;;
9374;SDS011;4727;51.202;6.344;2023-02-28T14:33:38;3.40;;;3.17;;
9374;SDS011;4727;51.202;6.344;2023-02-28T14:38:27;4.70;;;3.63;;
9374;SDS011;4727;51.202;6.344;2023-02-28T14:40:57;4.27;;;3.87;;
9374;SDS011;4727;51.202;6.344;2023-02-28T14:43:32;3.83;;;3.40;;
9374;SDS011;4727;51.202;6.344;2023-02-28T14:46:07;3.33;;;3.13;;
9374;SDS011;4727;51.202;6.344;2023-02-28T14:48:37;4.83;;;3.50;;
9374;SDS011;4727;51.202;6.344;2023-02-28T14:51:10;4.03;;;3.27;;
9374;SDS011;4727;51.202;6.344;2023-02-28T14:53:41;3.63;;;3.00;;
9374;SDS011;4727;51.202;6.344;2023-02-28T14:56:19;4.07;;;3.50;;
9374;SDS011;4727;51.202;6.344;2023-02-28T14:58:52;3.10;;;2.90;;
9374;SDS011;4727;51.202;6.344;2023-02-28T15:01:33;3.20;;;3.00;;
9374;SDS011;4727;51.202;6.344;2023-02-28T15:04:05;4.13;;;3.50;;
9374;SDS011;4727;51.202;6.344;2023-02-28T15:06:40;3.83;;;3.00;;
9374;SDS011;4727;51.202;6.344;2023-02-28T15:09:16;3.50;;;3.30;;
9374;SDS011;4727;51.202;6.344;2023-02-28T15:11:45;3.73;;;3.20;;
9374;SDS011;4727;51.202;6.344;2023-02-28T15:14:19;4.13;;;3.73;;
9374;SDS011;4727;51.202;6.344;2023-02-28T15:16:52;3.90;;;3.03;;
9374;SDS011;4727;51.202;6.344;2023-02-28T15:19:24;3.90;;;3.60;;
9374;SDS011;4727;51.202;6.344;2023-02-28T15:22:16;3.93;;;3.33;;
9374;SDS011;4727;51.202;6.344;2023-02-28T15:24:46;4.97;;;3.70;;
9374;SDS011;4727;51.202;6.344;2023-02-28T15:27:25;4.00;;;3.60;;
9374;SDS011;4727;51.202;6.344;2023-02-28T15:29:55;7.40;;;4.27;;
9374;SDS011;4727;51.202;6.344;2023-02-28T15:32:31;4.00;;;3.70;;
9374;SDS011;4727;51.202;6.344;2023-02-28T15:35:20;4.40;;;4.00;;
9374;SDS011;4727;51.202;6.344;2023-02-28T15:38:00;4.17;;;3.30;;
9374;SDS011;4727;51.202;6.344;2023-02-28T15:40:30;4.43;;;4.03;;
9374;SDS011;4727;51.202;6.344;2023-02-28T15:45:33;3.93;;;3.53;;
9374;SDS011;4727;51.202;6.344;2023-02-28T15:48:22;4.40;;;4.00;;
9374;SDS011;4727;51.202;6.344;2023-02-28T15:50:52;3.17;;;2.87;;
9374;SDS011;4727;51.202;6.344;2023-02-28T15:53:21;4.93;;;3.83;;
9374;SDS011;4727;51.202;6.344;2023-02-28T15:58:37;4.53;;;4.20;;
9374;SDS011;4727;51.202;6.344;2023-02-28T16:01:25;4.00;;;3.60;;
9374;SDS011;4727;51.202;6.344;2023-02-28T16:04:25;3.83;;;3.53;;
9374;SDS011;4727;51.202;6.344;2023-02-28T16:07:11;4.47;;;3.60;;
9374;SDS011;4727;51.202;6.344;2023-02-28T16:09:38;4.20;;;3.43;;
9374;SDS011;4727;51.202;6.344;2023-02-28T16:12:09;3.67;;;3.30;;
9374;SDS011;4727;51.202;6.344;2023-02-28T16:14:39;3.80;;;3.60;;
9374;SDS011;4727;51.202;6.344;2023-02-28T16:17:19;5.40;;;4.80;;
9374;SDS011;4727;51.202;6.344;2023-02-28T16:19:49;4.83;;;4.40;;
9374;SDS011;4727;51.202;6.344;2023-02-28T16:22:15;4.50;;;3.97;;
9374;SDS011;4727;51.202;6.344;2023-02-28T16:24:41;5.93;;;4.70;;
9374;SDS011;4727;51.202;6.344;2023-02-28T16:27:10;5.60;;;4.37;;
9374;SDS011;4727;51.202;6.344;2023-02-28T16:29:41;3.87;;;3.63;;
9374;SDS011;4727;51.202;6.344;2023-02-28T16:32:07;4.83;;;4.43;;
9374;SDS011;4727;51.202;6.344;2023-02-28T16:34:33;4.00;;;3.70;;
9374;SDS011;4727;51.202;6.344;2023-02-28T16:36:59;4.20;;;3.80;;
9374;SDS011;4727;51.202;6.344;2023-02-28T16:39:25;4.50;;;4.10;;
9374;SDS011;4727;51.202;6.344;2023-02-28T16:41:51;6.73;;;4.17;;
9374;SDS011;4727;51.202;6.344;2023-02-28T16:44:27;4.80;;;4.40;;
9374;SDS011;4727;51.202;6.344;2023-02-28T16:46:54;4.43;;;4.03;;
9374;SDS011;4727;51.202;6.344;2023-02-28T16:49:20;5.10;;;4.40;;
9374;SDS011;4727;51.202;6.344;2023-02-28T16:51:46;5.63;;;4.33;;
9374;SDS011;4727;51.202;6.344;2023-02-28T16:54:12;4.70;;;4.30;;
9374;SDS011;4727;51.202;6.344;2023-02-28T16:56:39;6.57;;;4.23;;
9374;SDS011;4727;51.202;6.344;2023-02-28T16:59:08;5.23;;;4.13;;
9374;SDS011;4727;51.202;6.344;2023-02-28T17:01:34;4.70;;;4.30;;
9374;SDS011;4727;51.202;6.344;2023-02-28T17:04:00;5.40;;;4.87;;
9374;SDS011;4727;51.202;6.344;2023-02-28T17:06:27;4.80;;;4.40;;
9374;SDS011;4727;51.202;6.344;2023-02-28T17:08:53;6.10;;;4.70;;
9374;SDS011;4727;51.202;6.344;2023-02-28T17:11:20;5.27;;;4.50;;
9374;SDS011;4727;51.202;6.344;2023-02-28T17:13:46;9.10;;;4.57;;
9374;SDS011;4727;51.202;6.344;2023-02-28T17:16:15;4.90;;;4.47;;
9374;SDS011;4727;51.202;6.344;2023-02-28T17:18:43;4.53;;;4.20;;
9374;SDS011;4727;51.202;6.344;2023-02-28T17:21:13;4.77;;;4.30;;
9374;SDS011;4727;51.202;6.344;2023-02-28T17:23:39;4.57;;;4.27;;
9374;SDS011;4727;51.202;6.344;2023-02-28T17:26:05;5.20;;;4.70;;
9374;SDS011;4727;51.202;6.344;2023-02-28T17:28:31;4.90;;;4.50;;
9374;SDS011;4727;51.202;6.344;2023-02-28T17:30:57;6.10;;;4.40;;
9374;SDS011;4727;51.202;6.344;2023-02-28T17:33:23;4.90;;;4.50;;
9374;SDS011;4727;51.202;6.344;2023-02-28T17:35:49;8.23;;;4.70;;
9374;SDS011;4727;51.202;6.344;2023-02-28T17:38:16;4.50;;;4.10;;
9374;SDS011;4727;51.202;6.344;2023-02-28T17:40:43;4.67;;;4.27;;
9374;SDS011;4727;51.202;6.344;2023-02-28T17:43:09;5.17;;;4.77;;
9374;SDS011;4727;51.202;6.344;2023-02-28T17:45:35;5.27;;;4.77;;
9374;SDS011;4727;51.202;6.344;2023-02-28T17:48:01;5.63;;;4.97;;
9374;SDS011;4727;51.202;6.344;2023-02-28T17:50:27;5.63;;;5.00;;
9374;SDS011;4727;51.202;6.344;2023-02-28T17:52:53;5.33;;;4.80;;
9374;SDS011;4727;51.202;6.344;2023-02-28T17:55:19;5.13;;;4.70;;
9374;SDS011;4727;51.202;6.344;2023-02-28T17:57:46;5.60;;;5.10;;
9374;SDS011;4727;51.202;6.344;2023-02-28T18:00:13;5.57;;;5.03;;
9374;SDS011;4727;51.202;6.344;2023-02-28T18:02:40;5.30;;;4.80;;
9374;SDS011;4727;51.202;6.344;2023-02-28T18:05:06;5.50;;;5.00;;
9374;SDS011;4727;51.202;6.344;2023-02-28T18:07:32;5.27;;;4.80;;
9374;SDS011;4727;51.202;6.344;2023-02-28T18:09:58;6.33;;;5.23;;
9374;SDS011;4727;51.202;6.344;2023-02-28T18:12:24;5.27;;;4.77;;
9374;SDS011;4727;51.202;6.344;2023-02-28T18:14:50;5.20;;;4.80;;
9374;SDS011;4727;51.202;6.344;2023-02-28T18:17:16;5.03;;;4.63;;
9374;SDS011;4727;51.202;6.344;2023-02-28T18:19:42;5.53;;;5.03;;
9374;SDS011;4727;51.202;6.344;2023-02-28T18:22:08;6.27;;;5.03;;
9374;SDS011;4727;51.202;6.344;2023-02-28T18:24:34;5.50;;;4.80;;
9374;SDS011;4727;51.202;6.344;2023-02-28T18:27:00;6.30;;;5.40;;
9374;SDS011;4727;51.202;6.344;2023-02-28T18:29:27;6.33;;;5.33;;
9374;SDS011;4727;51.202;6.344;2023-02-28T18:31:54;5.67;;;5.17;;
9374;SDS011;4727;51.202;6.344;2023-02-28T18:34:21;6.27;;;5.43;;
9374;SDS011;4727;51.202;6.344;2023-02-28T18:36:47;5.63;;;5.20;;
9374;SDS011;4727;51.202;6.344;2023-02-28T18:39:15;5.53;;;5.03;;
9374;SDS011;4727;51.202;6.344;2023-02-28T18:41:41;5.67;;;5.07;;
9374;SDS011;4727;51.202;6.344;2023-02-28T18:44:07;5.60;;;5.03;;
9374;SDS011;4727;51.202;6.344;2023-02-28T18:46:34;6.80;;;5.43;;
9374;SDS011;4727;51.202;6.344;2023-02-28T18:49:00;5.60;;;5.10;;
9374;SDS011;4727;51.202;6.344;2023-02-28T18:51:26;6.70;;;5.63;;
9374;SDS011;4727;51.202;6.344;2023-02-28T18:53:52;5.80;;;5.30;;
9374;SDS011;4727;51.202;6.344;2023-02-28T18:56:19;5.67;;;5.17;;
9374;SDS011;4727;51.202;6.344;2023-02-28T18:58:46;6.77;;;5.47;;
9374;SDS011;4727;51.202;6.344;2023-02-28T19:01:19;5.93;;;5.30;;
9374;SDS011;4727;51.202;6.344;2023-02-28T19:03:45;6.63;;;5.83;;
9374;SDS011;4727;51.202;6.344;2023-02-28T19:06:12;7.07;;;6.03;;
9374;SDS011;4727;51.202;6.344;2023-02-28T19:08:38;6.90;;;6.30;;
9374;SDS011;4727;51.202;6.344;2023-02-28T19:11:08;10.57;;;8.93;;
9374;SDS011;4727;51.202;6.344;2023-02-28T19:13:34;9.07;;;8.13;;